Air Navigation Services of Czech Republic
Airport: LKMT Updated:  25.03.2017 07:34:05  UTC
 METAR LKMT 25.03. 07:30 ...
METAR LKMT 250730Z VRB02KT 4500 BR NSC 05/02 Q1029 BECMG 6000 NSW=
 TAF LKMT 25.03. 05:00 ...
TAF LKMT 250500Z 2506/2612 VRB02KT 2000 BR NSC      TEMPO 2506/2507 1200 BR NSC      PROB30 TEMPO 2506/2507 0600 FZFG VV002      BECMG 2507/2510 CAVOK      BECMG 2517/2520 01007KT      BECMG 2605/2608 02013KT      TEMPO 2600/2604 9999 BKN030=